Latest Weather Observations for Christmas Island

IDW60801

Issued at 6:33 am WST Friday 28 April 2017 (issued every 30 minutes, with the page automatically refreshed every 10 minutes)

About weather observations | Map of weather stations | Latest weather observations for WA | Other Formats
Station Details ID: 200790 Name: CHRISTMAS ISLAND AERO Lat: -10.45 Lon: 105.69 Height: 261.0 m
Data from the previous 72 hours. | See also: Recent months at Christmas Island
Date/Time
WST
Temp
°C
App
Temp
°C
Dew
Point
°C
Rel
Hum
%
Delta-T
°C
Wind Press
QNH
hPa
Press
MSL
hPa
Rain since
9am
mm
Dir  Spd
km/h
Gust
km/h
Spd
kts
Gust
kts
28/06:30am 22.5 24.7 21.9 96 0.4 SE 13 19 7 10 1013.5 - 54.0
28/06:00am 21.9 23.3 21.0 95 0.6 SE 15 20 8 11 1013.6 - 54.0
28/05:52am 21.9 23.4 21.3 96 0.4 SE 15 20 8 11 1013.6 - 54.0
28/05:30am 22.2 23.9 21.6 96 0.4 ESE 15 22 8 12 1013.6 - 54.0
28/05:26am 22.0 23.6 21.5 97 0.3 ESE 15 22 8 12 1013.7 - 54.0
28/05:00am 22.5 23.5 22.1 98 0.3 ESE 20 32 11 17 1013.7 - 53.2
28/04:39am 22.6 23.3 22.2 98 0.3 E 22 35 12 19 1013.8 - 49.8
28/04:36am 22.6 22.9 22.2 98 0.3 E 24 35 13 19 1013.8 - 49.8
28/04:30am 22.6 22.9 22.2 98 0.3 ENE 24 35 13 19 1013.9 - 49.2
28/04:26am 22.5 23.0 21.9 96 0.4 ENE 22 35 12 19 1013.8 - 48.4
28/04:23am 22.4 22.8 21.8 96 0.4 ENE 22 33 12 18 1013.8 - 48.4
28/04:11am 22.5 22.3 22.1 98 0.3 ENE 26 46 14 25 1013.9 - 48.2
28/04:06am 22.7 22.5 22.1 96 0.4 ENE 26 46 14 25 1013.9 - 48.2
28/04:03am 22.9 23.3 22.5 98 0.3 ENE 24 46 13 25 1013.9 - 48.2
28/04:01am 23.2 24.1 22.6 96 0.4 ENE 22 41 12 22 1013.8 - 48.2
28/04:00am 23.3 24.2 22.7 96 0.4 ENE 22 41 12 22 1013.8 1012.2 48.2
28/03:54am 23.5 24.1 22.8 96 0.5 ENE 24 35 13 19 1013.8 - 47.8
28/03:47am 23.6 23.6 22.4 93 0.8 ENE 26 35 14 19 1013.8 - 47.2
28/03:45am 23.5 23.1 22.3 93 0.8 ENE 28 35 15 19 1013.9 - 47.2
28/03:30am 24.5 27.5 22.7 90 1.2 E 11 17 6 9 1013.6 - 47.2
28/03:13am 24.3 26.9 22.7 91 1.1 ESE 13 19 7 10 1013.5 - 47.2
28/03:00am 24.1 27.2 22.8 92 0.9 ESE 11 15 6 8 1013.7 - 47.2
28/02:30am 23.8 26.8 22.6 93 0.8 SE 11 17 6 9 1014.1 - 47.2
28/02:10am 24.3 28.6 23.6 96 0.5 ESE 7 11 4 6 1014.2 - 47.2
28/02:00am 24.1 28.3 23.4 96 0.5 ESE 7 9 4 5 1014.3 - 47.2
28/01:30am 24.2 28.4 23.5 96 0.5 ESE 7 11 4 6 1014.5 - 47.2
28/01:08am 23.6 27.7 22.9 96 0.5 ESE 6 9 3 5 1014.9 - 47.2
28/01:00am 23.4 27.2 22.7 96 0.5 ESE 7 9 4 5 1015.0 1013.4 47.2
28/12:35am 23.4 27.2 22.4 94 0.7 SE 6 11 3 6 1015.1 - 47.2
28/12:30am 23.4 26.9 22.2 93 0.8 SSE 7 11 4 6 1015.0 - 47.2
28/12:00am 23.8 26.4 22.6 93 0.8 SE 13 20 7 11 1014.9 - 32.0
 
Date/Time
WST
Temp
°C
App
Temp
°C
Dew
Point
°C
Rel
Hum
%
Delta-T
°C
Wind Press
QNH
hPa
Press
MSL
hPa
Rain since
9am
mm
Dir  Spd
km/h
Gust
km/h
Spd
kts
Gust
kts
27/11:51pm 24.2 26.9 22.9 92 0.9 SE 13 28 7 15 1014.9 - 28.8
27/11:30pm 24.7 28.1 23.4 92 0.9 ESE 11 15 6 8 1015.0 - 26.8
27/11:00pm 24.8 28.0 23.0 90 1.2 E 11 19 6 10 1015.1 - 26.6
27/10:30pm 24.7 27.8 22.9 90 1.2 E 11 19 6 10 1015.3 - 26.6
27/10:05pm 24.7 27.6 23.1 91 1.1 E 13 19 7 10 1015.1 - 26.6
27/10:00pm 24.6 27.4 23.0 91 1.1 E 13 19 7 10 1015.0 1013.4 26.6
27/09:30pm 24.3 27.2 22.5 90 1.2 E 11 15 6 8 1014.8 - 26.6
27/09:24pm 24.3 26.8 22.5 90 1.2 E 13 15 7 8 1014.8 - 26.6
27/09:08pm 24.3 27.3 22.7 91 1.1 E 11 17 6 9 1014.7 - 26.6
27/09:02pm 24.3 27.2 22.5 90 1.2 E 11 17 6 9 1014.6 - 26.6
27/09:00pm 24.2 27.2 22.6 91 1.1 E 11 17 6 9 1014.6 - 26.6
27/08:30pm 24.3 27.4 22.8 91 1.0 E 11 17 6 9 1014.4 - 26.6
27/08:00pm 24.3 26.9 23.3 94 0.7 ENE 15 22 8 12 1013.9 - 26.4
27/07:30pm 24.4 27.4 23.4 94 0.7 ENE 13 20 7 11 1013.6 - 26.4
27/07:00pm 24.2 27.9 23.3 95 0.6 ENE 9 13 5 7 1013.4 1011.8 26.4
27/06:30pm 24.0 26.8 23.0 94 0.7 ENE 13 19 7 10 1013.1 - 26.4
27/06:00pm 24.0 26.4 23.0 94 0.7 E 15 20 8 11 1012.5 - 26.4
27/05:30pm 23.7 26.4 22.8 95 0.6 E 13 20 7 11 1012.1 - 26.4
27/05:00pm 23.5 26.2 22.9 96 0.4 E 13 20 7 11 1011.7 - 26.4
27/04:33pm 23.3 26.0 22.9 98 0.3 ENE 13 19 7 10 1011.7 - 26.0
27/04:30pm 23.1 25.7 22.7 98 0.3 ENE 13 19 7 10 1011.7 - 26.0
27/04:00pm 23.5 26.7 23.1 98 0.3 ENE 11 17 6 9 1012.1 1010.4 24.4
27/03:30pm 22.9 25.4 22.5 98 0.3 NE 13 20 7 11 1012.6 - 21.8
27/03:00pm 22.8 24.1 22.4 98 0.3 NE 19 30 10 16 1012.8 - 18.2
27/02:30pm 23.0 23.4 22.4 96 0.4 NNE 24 44 13 24 1013.0 - 16.8
27/02:28pm 23.2 23.3 22.6 96 0.4 NNE 26 44 14 24 1012.9 - 16.8
27/02:25pm 23.3 22.7 22.6 96 0.5 NNE 30 44 16 24 1012.9 - 16.8
27/02:21pm 23.7 23.0 22.5 93 0.8 ENE 30 44 16 24 1012.8 - 16.6
27/02:00pm 25.1 27.8 24.1 94 0.7 SE 17 24 9 13 1012.7 - 16.6
27/01:44pm 25.1 27.8 24.1 94 0.7 SE 17 22 9 12 1013.1 - 16.6
27/01:30pm 25.3 30.1 24.4 95 0.6 SE 7 11 4 6 1013.1 - 16.6
27/01:00pm 24.7 28.7 23.8 95 0.6 SE 9 15 5 8 1013.2 1011.6 16.6
27/12:30pm 24.0 27.6 23.0 94 0.7 SE 9 15 5 8 1014.1 - 16.0
27/12:02pm 23.2 26.5 22.6 96 0.4 NE 9 13 5 7 1014.3 - 16.0
27/12:00pm 23.2 26.5 22.6 96 0.4 NE 9 15 5 8 1014.3 - 16.0
27/11:50am 23.1 25.6 22.5 96 0.4 NE 13 17 7 9 1014.5 - 15.8
27/11:49am 23.1 25.6 22.5 96 0.4 NE 13 20 7 11 1014.6 - 15.6
27/11:45am 23.0 25.4 22.3 96 0.5 NE 13 24 7 13 1014.7 - 15.2
27/11:30am 22.9 24.0 22.3 96 0.4 NNE 20 35 11 19 1014.9 - 13.2
27/11:00am 24.0 28.1 23.3 96 0.5 NNE 7 17 4 9 1014.8 - 7.6
27/10:43am 24.4 26.9 23.2 93 0.8 ENE 15 22 8 12 1014.5 - 1.4
27/10:30am 26.0 29.4 24.1 89 1.3 ESE 13 20 7 11 1014.4 - 0.0
27/10:00am 25.7 29.1 24.1 91 1.1 ESE 13 20 7 11 1014.4 1012.8 3.4
27/09:30am 25.8 28.3 23.8 89 1.4 E 17 24 9 13 1014.5 - 3.4
27/09:00am 25.6 29.0 24.0 91 1.1 ESE 13 20 7 11 1014.4 - 3.4
27/08:30am 25.7 29.0 23.8 89 1.3 E 13 24 7 13 1014.2 - 3.4
27/08:00am 25.6 28.5 23.9 90 1.2 ESE 15 24 8 13 1013.9 - 3.2
27/07:30am 25.2 28.9 23.9 92 0.9 ESE 11 17 6 9 1013.1 - 3.2
27/07:19am 25.0 27.9 23.8 93 0.8 E 15 22 8 12 1013.1 - 3.2
27/07:00am 24.7 28.1 24.1 96 0.4 ESE 13 20 7 11 1012.9 1011.3 1.8
27/06:59am 24.7 28.1 24.1 96 0.4 ESE 13 20 7 11 1012.9 - 1.6
27/06:37am 24.7 28.5 24.1 96 0.4 E 11 19 6 10 1012.9 - 0.6
27/06:30am 24.7 28.5 24.0 96 0.5 E 11 19 6 10 1012.8 - 0.6
27/06:11am 24.6 28.6 23.7 95 0.6 ESE 9 15 5 8 1012.5 - 0.4
27/06:00am 24.5 28.2 23.3 93 0.8 ESE 9 13 5 7 1012.5 - 0.4
27/05:30am 24.4 28.1 23.2 93 0.8 E 9 19 5 10 1012.4 - 0.4
27/05:00am 24.4 29.3 23.1 92 0.9 E 2 7 1 4 1012.5 - 0.4
27/04:57am 24.4 29.0 23.1 92 0.9 E 4 7 2 4 1012.6 - 0.4
27/04:53am 24.4 28.5 22.9 91 1.0 E 6 7 3 4 1012.7 - 0.4
27/04:30am 24.8 27.6 22.3 86 1.7 E 11 15 6 8 1012.7 - 0.2
27/04:00am 24.6 26.9 22.7 89 1.3 NE 15 22 8 12 1012.4 1010.7 0.2
27/03:30am 25.2 28.1 23.9 92 0.9 ENE 15 20 8 11 1012.9 - 0.2
27/03:00am 24.9 28.1 23.1 90 1.2 E 11 15 6 8 1013.0 - 0.2
27/02:35am 25.6 28.6 23.4 88 1.5 E 13 19 7 10 1013.0 - 0.2
27/02:30am 25.4 28.3 23.1 87 1.6 E 13 19 7 10 1013.1 - 0.2
27/02:28am 25.4 28.1 22.9 86 1.7 E 13 19 7 10 1013.1 - 0.2
27/02:00am 25.5 28.4 23.2 87 1.6 E 13 17 7 9 1013.6 - 0.2
27/01:44am 25.4 28.8 23.4 89 1.4 E 11 19 6 10 1013.6 - 0.2
27/01:42am 25.4 28.7 23.2 88 1.5 E 11 19 6 10 1013.7 - 0.2
27/01:30am 25.4 28.8 23.4 89 1.4 E 11 17 6 9 1013.7 - 0.2
27/01:00am 25.4 28.8 23.4 89 1.4 E 11 17 6 9 1013.7 1012.1 0.2
27/12:30am 25.4 28.9 23.5 89 1.3 ENE 11 17 6 9 1014.2 - 0.2
27/12:00am 25.4 29.2 23.5 89 1.3 ENE 9 13 5 7 1014.4 - 0.2
 
Date/Time
WST
Temp
°C
App
Temp
°C
Dew
Point
°C
Rel
Hum
%
Delta-T
°C
Wind Press
QNH
hPa
Press
MSL
hPa
Rain since
9am
mm
Dir  Spd
km/h
Gust
km/h
Spd
kts
Gust
kts
26/11:49pm 25.4 29.2 23.5 89 1.3 ENE 9 13 5 7 1014.5 - 0.2
26/11:30pm 25.4 29.6 23.5 89 1.3 E 7 9 4 5 1014.7 - 0.2
26/11:00pm 25.2 29.3 23.3 89 1.3 E 7 11 4 6 1014.7 - 0.2
26/10:37pm 25.4 28.8 23.4 89 1.4 ENE 11 15 6 8 1014.5 - 0.2
26/10:30pm 25.4 28.3 23.2 88 1.5 ENE 13 17 7 9 1014.5 - 0.2
26/10:22pm 25.5 28.4 23.2 87 1.6 ENE 13 20 7 11 1014.3 - 0.2
26/10:00pm 25.4 28.3 23.2 88 1.5 ENE 13 19 7 10 1014.4 1012.8 0.2
26/09:53pm 25.4 28.3 23.2 88 1.5 ENE 13 20 7 11 1014.4 - 0.2
26/09:30pm 25.5 28.0 23.2 87 1.6 ENE 15 20 8 11 1014.2 - 0.2
26/09:03pm 25.5 28.3 23.0 86 1.7 E 13 19 7 10 1014.2 - 0.2
26/09:00pm 25.4 28.3 23.1 87 1.6 E 13 17 7 9 1014.2 - 0.2
26/08:40pm 25.4 28.1 22.9 86 1.7 E 13 19 7 10 1013.8 - 0.2
26/08:30pm 25.4 28.3 23.1 87 1.6 E 13 19 7 10 1013.7 - 0.2
26/08:00pm 25.4 28.4 23.4 89 1.4 E 13 20 7 11 1013.5 - 0.2
26/07:30pm 25.4 28.6 23.1 87 1.6 E 11 15 6 8 1013.2 - 0.2
26/07:07pm 25.2 28.8 23.0 87 1.5 E 9 13 5 7 1012.9 - 0.2
26/07:00pm 25.1 28.2 22.9 87 1.5 E 11 15 6 8 1012.9 1011.3 0.2
26/06:32pm 25.4 28.3 22.5 84 2.0 ENE 11 17 6 9 1012.3 - 0.2
26/06:30pm 25.4 27.9 22.5 84 2.0 ENE 13 17 7 9 1012.3 - 0.2
26/06:00pm 25.5 29.0 23.5 89 1.4 NE 11 17 6 9 1011.8 - 0.2
26/05:53pm 25.8 29.1 23.2 85 1.8 NE 11 19 6 10 1011.7 - 0.2
26/05:30pm 25.9 28.4 22.4 81 2.4 ENE 13 17 7 9 1011.7 - 0.2
26/05:00pm 26.2 28.8 22.7 81 2.4 ENE 13 19 7 10 1011.4 - 0.2
26/04:58pm 26.4 29.1 22.9 81 2.4 ENE 13 19 7 10 1011.4 - 0.2
26/04:30pm 26.3 29.0 23.5 84 1.9 ENE 15 20 8 11 1011.2 - 0.2
26/04:00pm 26.6 28.8 23.3 82 2.3 ENE 17 24 9 13 1011.2 1009.6 0.2
26/03:35pm 26.9 28.4 23.0 79 2.7 NE 20 26 11 14 1011.5 - 0.2
26/03:30pm 26.8 27.9 22.4 77 3.0 ENE 20 32 11 17 1011.5 - 0.2
26/03:29pm 26.8 28.1 22.4 77 3.0 ENE 19 32 10 17 1011.5 - 0.2
26/03:00pm 26.9 28.2 22.7 78 2.9 NE 20 30 11 16 1011.6 - 0.2
26/02:30pm 25.6 27.1 23.1 86 1.7 ENE 20 28 11 15 1012.2 - 0.2
26/02:00pm 25.5 26.6 23.6 89 1.3 NE 24 35 13 19 1012.6 - 0.2
26/01:40pm 24.3 26.0 23.4 95 0.6 NE 20 30 11 16 1013.1 - 0.2
26/01:30pm 24.6 26.7 23.7 95 0.6 NE 19 28 10 15 1013.2 - 0.2
26/01:21pm 24.6 26.0 23.6 94 0.7 NE 22 39 12 21 1013.2 - 0.2
26/01:00pm 25.6 28.0 23.6 89 1.4 E 17 24 9 13 1013.2 1011.6 0.2
26/12:47pm 26.3 28.2 23.5 84 1.9 E 19 32 10 17 1013.2 - 0.2
26/12:30pm 27.1 28.9 23.2 79 2.7 E 19 22 10 12 1013.3 - 0.2
26/12:00pm 27.0 29.6 22.0 74 3.4 ENE 11 17 6 9 1013.9 - 0.0
26/11:32am 25.6 29.1 23.6 89 1.4 ESE 11 17 6 9 1014.4 - 0.0
26/11:30am 25.5 29.0 23.6 89 1.3 ESE 11 17 6 9 1014.5 - 0.0
26/11:00am 24.8 28.1 23.8 94 0.7 E 13 17 7 9 1014.6 - 0.0
26/10:41am 24.3 27.7 23.3 94 0.7 ESE 11 15 6 8 1014.5 - 0.0
26/10:30am 23.9 27.4 22.9 94 0.7 ESE 9 13 5 7 1014.6 - 0.0
26/10:07am 23.8 27.0 23.1 96 0.5 E 11 15 6 8 1014.6 - 0.0
26/10:02am 23.5 26.6 22.9 96 0.4 E 11 13 6 7 1014.6 - 0.0
26/10:00am 23.5 26.6 22.9 96 0.4 E 11 15 6 8 1014.6 1013.0 43.6
26/09:47am 23.5 26.0 23.1 98 0.3 E 15 20 8 11 1014.8 - 43.6
26/09:42am 23.5 26.4 23.1 98 0.3 E 13 19 7 10 1014.8 - 43.6
26/09:30am 23.3 25.7 22.9 98 0.3 ENE 15 20 8 11 1014.6 - 43.6
26/09:23am 23.3 25.7 22.9 98 0.3 E 15 20 8 11 1014.6 - 43.6
26/09:22am 23.3 25.7 22.9 98 0.3 E 15 20 8 11 1014.6 - 43.6
26/09:00am 23.3 24.9 22.9 98 0.3 NE 19 26 10 14 1014.3 - 43.6
26/08:30am 23.2 24.6 22.8 98 0.3 NE 20 28 11 15 1013.9 - 43.4
26/08:00am 23.3 26.7 22.7 96 0.4 SSE 9 19 5 10 1013.6 - 37.4
26/07:43am 23.7 27.2 22.8 95 0.6 NE 9 32 5 17 1013.5 - 21.0
26/07:32am 23.9 26.7 23.0 95 0.6 S 13 19 7 10 1013.1 - 17.6
26/07:30am 23.8 26.7 23.1 96 0.5 S 13 19 7 10 1013.1 - 17.6
26/07:13am 23.9 26.9 23.3 96 0.4 SSE 13 20 7 11 1012.9 - 17.6
26/07:00am 24.7 27.9 23.7 94 0.7 E 13 22 7 12 1012.6 1010.9 17.6
26/06:30am 24.6 28.7 23.9 96 0.5 ESE 9 20 5 11 1012.2 - 17.6
26/06:00am 23.7 26.6 22.4 92 0.9 ESE 11 17 6 9 1011.9 - 17.6
26/05:41am 23.6 26.6 22.6 94 0.7 ESE 11 15 6 8 1011.8 - 17.6
26/05:30am 23.6 26.2 22.7 95 0.6 ESE 13 17 7 9 1011.8 - 17.6
26/05:21am 23.8 26.7 23.1 96 0.5 ESE 13 17 7 9 1011.9 - 17.6
26/05:00am 23.4 27.1 22.5 95 0.6 ESE 7 13 4 7 1012.1 - 17.6
26/04:30am 23.4 26.8 22.7 96 0.5 ESE 9 13 5 7 1011.9 - 17.6
26/04:17am 23.3 25.9 22.7 96 0.4 ESE 13 17 7 9 1012.1 - 17.6
26/04:07am 23.2 26.1 22.5 96 0.5 E 11 17 6 9 1011.9 - 17.4
26/04:00am 23.5 26.2 22.8 96 0.5 ESE 13 19 7 10 1012.2 1010.5 17.4
26/03:30am 23.8 25.8 22.9 95 0.6 SSE 17 30 9 16 1012.1 - 17.4
26/03:27am 23.9 26.1 23.2 96 0.5 SE 17 28 9 15 1012.2 - 17.2
26/03:18am 25.1 29.9 24.5 96 0.4 SE 7 20 4 11 1012.3 - 16.0
26/03:00am 24.8 28.7 24.2 96 0.4 SE 11 17 6 9 1012.6 - 16.0
26/02:55am 24.8 28.7 24.2 96 0.4 SE 11 15 6 8 1012.7 - 16.0
26/02:30am 24.3 28.6 23.7 96 0.4 S 7 13 4 7 1012.8 - 16.0
26/02:00am 24.7 28.2 23.5 93 0.8 ESE 11 22 6 12 1013.4 - 16.0
26/01:30am 25.2 29.0 24.0 93 0.8 E 11 17 6 9 1013.5 - 16.0
26/01:16am 25.3 28.7 24.1 93 0.8 E 13 19 7 10 1013.7 - 16.0
26/01:10am 25.2 28.6 24.0 93 0.8 ESE 13 19 7 10 1013.8 - 16.0
26/01:00am 25.1 29.4 24.2 95 0.6 SE 9 19 5 10 1013.9 1012.3 16.0
26/12:58am 25.0 29.2 24.1 95 0.6 SE 9 15 5 8 1014.0 - 16.0
26/12:56am 24.9 29.0 24.0 95 0.6 SE 9 15 5 8 1014.0 - 16.0
26/12:33am 24.9 28.3 24.0 95 0.6 SE 13 20 7 11 1014.2 - 15.0
26/12:30am 25.0 28.0 24.0 94 0.7 SE 15 20 8 11 1014.2 - 15.0
26/12:14am 25.3 28.3 24.0 92 0.9 SE 15 24 8 13 1014.1 - 13.6
26/12:00am 25.5 28.9 24.1 92 1.0 ESE 13 20 7 11 1014.0 - 11.2
 
Date/Time
WST
Temp
°C
App
Temp
°C
Dew
Point
°C
Rel
Hum
%
Delta-T
°C
Wind Press
QNH
hPa
Press
MSL
hPa
Rain since
9am
mm
Dir  Spd
km/h
Gust
km/h
Spd
kts
Gust
kts
25/11:30pm 25.4 28.2 23.7 90 1.2 SE 15 22 8 12 1013.9 - 11.2
25/11:00pm 25.4 29.0 23.7 90 1.2 SE 11 17 6 9 1014.0 - 11.2
25/10:30pm 25.5 29.2 23.9 91 1.1 ESE 11 17 6 9 1014.4 - 11.2
25/10:00pm 25.4 28.4 24.0 92 1.0 SE 15 19 8 10 1014.3 1012.7 11.2
25/09:30pm 25.4 28.9 24.2 93 0.8 SE 13 20 7 11 1014.2 - 11.2
25/09:00pm 25.4 29.0 24.4 94 0.7 SE 13 19 7 10 1013.9 - 11.2
25/08:30pm 25.4 29.0 24.4 94 0.7 ESE 13 19 7 10 1013.4 - 11.2
25/08:00pm 25.4 29.1 24.5 95 0.6 SE 13 17 7 9 1012.8 - 11.2
25/07:30pm 25.3 28.9 24.4 95 0.6 ESE 13 17 7 9 1012.5 - 11.2
25/07:00pm 25.5 29.2 24.5 94 0.7 ESE 13 17 7 9 1012.4 1010.7 11.2
25/06:50pm 25.3 29.3 24.4 95 0.6 E 11 17 6 9 1012.4 - 11.2
25/06:36pm 25.3 29.8 24.6 96 0.5 E 9 15 5 8 1012.3 - 10.8
25/06:32pm 25.3 29.8 24.6 96 0.5 E 9 13 5 7 1012.2 - 10.4
25/06:30pm 25.3 29.8 24.6 96 0.5 ENE 9 13 5 7 1012.2 - 9.8
25/06:00pm 25.5 28.0 24.5 94 0.7 NNE 19 26 10 14 1011.9 - 7.0
25/05:57pm 25.5 27.8 24.5 94 0.7 NNE 20 26 11 14 1011.9 - 3.8
25/05:30pm 26.4 30.3 24.2 88 1.5 ESE 11 17 6 9 1011.4 - 0.2
25/05:00pm 26.2 29.7 24.2 89 1.4 ESE 13 19 7 10 1011.3 - 0.2
25/04:30pm 26.5 29.6 24.1 87 1.7 E 15 22 8 12 1011.1 - 0.2
25/04:00pm 26.4 29.6 24.4 89 1.4 E 15 20 8 11 1010.9 1009.3 0.2
25/03:30pm 26.9 30.6 24.6 87 1.6 E 13 19 7 10 1011.2 - 0.2
25/03:00pm 27.6 30.4 24.3 82 2.3 E 17 22 9 12 1011.8 - 0.2
25/02:30pm 27.4 29.9 24.4 84 2.1 E 19 26 10 14 1012.4 - 0.2
25/02:00pm 26.9 28.9 24.0 84 2.0 E 20 28 11 15 1012.9 - 0.2
25/01:30pm 27.6 30.2 24.0 81 2.5 E 17 24 9 13 1013.3 - 0.2
25/01:00pm 26.9 29.6 24.2 85 1.9 E 17 24 9 13 1013.5 1011.9 0.2
25/12:30pm 26.7 29.3 24.0 85 1.9 ESE 17 26 9 14 1013.7 - 0.2
25/12:00pm 27.1 29.2 24.1 84 2.1 E 20 28 11 15 1014.1 - 0.2
25/11:30am 27.2 30.1 24.5 85 1.9 E 17 22 9 12 1014.6 - 0.2
25/11:00am 26.8 30.1 24.5 87 1.6 E 15 22 8 12 1014.7 - 0.2
25/10:30am 27.1 30.0 24.5 86 1.8 E 17 20 9 11 1015.0 - 0.0
25/10:00am 26.0 28.1 23.8 88 1.5 E 19 30 10 16 1015.0 1013.4 1.2
25/09:30am 25.8 28.7 24.4 92 1.0 E 17 28 9 15 1014.5 - 1.2
25/09:00am 25.6 29.0 24.0 91 1.1 E 13 20 7 11 1014.0 - 1.2
25/08:30am 25.1 27.8 24.2 95 0.6 ESE 17 26 9 14 1013.8 - 1.2
25/08:00am 25.0 27.3 23.5 91 1.0 ESE 17 24 9 13 1013.4 - 1.2

Other Formats:

Comma delimited format used in spreadsheet applications
http://www.bom.gov.au/fwo/IDW60801/IDW60801.96995.axf

JavaScript Object Notation format (JSON) in row-major order
http://www.bom.gov.au/fwo/IDW60801/IDW60801.96995.json